Aérodrome :
LOGIN :

S'inscrire | Disclaimer

   EN    FR    IT 

 










Légende :    VFR   VFR Marginal   IFR   IFR Intensif   IFR Très Intensif
Visi : 
Plafond : 
>= 8 km
>= 3000ft
5 à 8 km
1000 à 3000 ft
1500m à 5 km
500 à 1000 ft
800 à 1500m
200 à 500 ft
< 800m
< 200 ft
Symboles :   Orages  Brouillard  Fortes neiges  Fortes précipitations  Vent > 20 kt
SIGMETs :   Divers  Orages  Givrage  Turbulence  Onde Orograph.  Cendres Volcan.







- Altitude de l'aérodrome : 202 ft
- Code IATA : LGW
- Voir les cartes d'approche


EGKK - London Gatwick

DERNIER METAR :
  • 200920Z 07007KT 030V110 CAVOK 13/10 Q1023

METARs EXPIRÉS :
  • 200850Z 05007KT 360V070 CAVOK 12/09 Q1023
  • 200820Z 06004KT 020V110 9999 SCT003 10/10 Q1023
  • 200750Z VRB03KT 5000 BR SCT002 09/09 Q1023
  • 200720Z 07004KT 010V120 1300 R08R/P1500 BR BKN001 08/07 Q1023
  • 200650Z VRB03KT 0700 R08R/1200 FG BKN001 07/07 Q1023

TAF AMD TAF EGKK
Valide du 20 à 08h jusqu'au 21 à 12h UTC


200749Z 2008/2112 VRB03KT 2000 BR SCT001
BECMG 2008/2011 9999 NSW SCT030
BECMG 2022/2101 7000
TEMPO 2101/2107 4000 BR BKN004
PROB30
TEMPO 2101/2107 0500 FG BKN001
BECMG 2107/2110 9999
PROB30
TEMPO 2110/2112 6000 SHRA
Pas de NOTAMs connus pour ce terrain.



MET'MAP, la Météo Aéronautique d'un coup d'oeil ! - Copyright ORBIFLY Décembre 2007 - Disclaimer

ORBIFLY MET'MAP TEAM :

Programmation & Développement : Alexandra Zaïnal
Conception & Développement : Baudouin d'Aumeries
Co-Programmation & Développement : Marc-Olivier Méhu
Soutien technique & logistique : Manuel Goepfert

Contact : metmap@orbifly.com




SOURCES & CREDITS :

   NOAA